Airfield :
LOGIN :

Register | Disclaimer

   EN    FR    IT 

 










Legend :    VFR   Marginal VFR   IFR   Intensive IFR   Very Intensive IFR
Visi :
Ceiling :
>= 8 km
>= 3000ft
5 to 8 km
1000 to 3000 ft
1500m to 5 km
500 to 1000 ft
800 to 1500m
200 to 500 ft
< 800m
< 200 ft
Symbols :   Thunderstorms  Fog  Heavy snow  Heavy precipitations  Wind > 20 kt
SIGMETs :     Misc.  Thunderstorms  Icing  Turbulence  Mountain Waves  Volcanic Ashes






- Airport Elevation : 220 ft
- IATA code : CWL


EGFF - Cardiff Rhoose

CURRENT METAR :
  • 101050Z AUTO 05010KT 020V080 9999 FEW025 09/02 Q1014

EXPIRED METARs :
  • 101020Z AUTO 06013KT 9999 NCD 08/02 Q1014
  • 100950Z AUTO 06012KT 020V090 9999 SCT022 08/02 Q1014
  • 100920Z AUTO 04011KT 010V070 9999 NCD 07/02 Q1014
  • 100850Z AUTO 06013KT 9999 NCD 06/01 Q1014
  • 100820Z AUTO 05014KT 9999 NCD 06/M00 Q1014

TAF TAF EGFF
Valid from the 10 at 06:00 until the 11 at 06:00 UTC


100504Z 1006/1106 04009KT 9999 SCT040
PROB40
TEMPO 1012/1017 8000 SHRA
TEMPO 1017/1103 7000 RA SHRA BKN012
PROB30
TEMPO 1020/1103 BKN007
ATIS : +44 1446 729 319



MET'MAP, your aeronautical weather chart ! - Copyright ORBIFLY December 2007 - Disclaimer

ORBIFLY MET'MAP TEAM :

Programming & Development : Alexandra Zaïnal
Concept & original design : Baudouin d'Aumeries
Assistance for programming : Marc-Olivier Méhu
Technical & hardware support : Manuel Goepfert

Contact : metmap@orbifly.com




SOURCES & CREDITS :

   NOAA